Aviation Digital Data Service (ADDS)

Output produced by METARs form (1321 UTC 17 August 2019)
found at http://aviationweather.gov/metar/data/
 
KRYY 171250Z 00000KT 10SM CLR 24/20 A3003 RMK AO2 SLP890 T02440200 $
KRYY 171139Z 1712/1812 VRB02KT P6SM SKC 
     FM171700 33006KT P6SM SCT060 
     FM180000 10004KT P6SM FEW070 
     FM180800 20004KT P6SM FEW250
       
KPUJ 171315Z AUTO 00000KT 10SM CLR 25/17 A3005 RMK AO2
KCNI 171255Z AUTO 00000KT 10SM CLR 22/18 A3004 RMK AO2
KPDK 171253Z 00000KT 10SM CLR 25/20 A3001 RMK AO2 SLP143 T02500200
KPDK 171139Z 1712/1812 VRB02KT P6SM SKC 
     FM171700 33006KT P6SM SCT060 
     FM180000 10004KT P6SM FEW070 
     FM180800 20004KT P6SM FEW250
       
KRMG 171253Z AUTO 00000KT 10SM CLR 22/18 A3002 RMK AO2 SLP154 T02220178 $
KATL 171252Z 31004KT 10SM FEW250 26/18 A3001 RMK AO2 SLP150 T02610183 $
KATL 171139Z 1712/1818 03003KT P6SM SKC 
     FM171500 35004KT P6SM SKC 
     FM171700 33006KT P6SM SCT060 
     FM180000 10004KT P6SM FEW070 
     FM180800 20004KT P6SM FEW250 
     FM181500 25002KT P6SM SKC
       
KFFC 171253Z AUTO 28003KT 10SM CLR 25/21 A3001 RMK AO2 SLP156 T02500211
KGAD 171256Z AUTO 00000KT 10SM CLR 22/21 A3003 RMK AO2 SLP167 T02220206
KCHA 171253Z 00000KT 10SM SCT250 23/19 A3004 RMK AO2 SLP164 T02330194
KCHA 171130Z 1712/1812 00000KT P6SM SCT200 
     FM171500 35005KT P6SM SCT060 
     FM180100 00000KT P6SM SCT200
       
KAHN 171251Z 07004KT 10SM CLR 26/22 A3000 RMK AO2 SLP152 T02560217 $
KAHN 171139Z 1712/1812 VRB03KT P6SM SKC 
     FM171700 33006KT P6SM SCT060 
     FM180000 10004KT P6SM FEW070 
     FM180800 20004KT P6SM FEW250
       
KLZU 171256Z 00000KT 10SM CLR 25/21 A3002 RMK AO2 SLP165 T02500211